Time;durP1;ratioP1;P1;durP2;ratioP2;P2;SDS_P1;SDS_P2;PMS_P1;PMS_P2;Temp;Humidity;BMP_temperature;BMP_pressure;BME280_temperature;BME280_humidity;BME280_pressure;Samples;Min_cycle;Max_cycle;Signal;HPM_P1;HPM_P2
2021/12/07 00:00:29;;;;;;;0.68;0.50;;;1.60;93.80;;;;;;5119186;27;20055;-78
2021/12/07 00:02:55;;;;;;;1.48;0.70;;;1.60;93.80;;;;;;5119106;27;20034;-78
2021/12/07 00:05:22;;;;;;;0.70;0.40;;;1.60;93.70;;;;;;5136137;27;20107;-78
2021/12/07 00:07:48;;;;;;;0.38;0.28;;;1.60;94.00;;;;;;5118645;27;20058;-77
2021/12/07 00:10:15;;;;;;;0.47;0.43;;;1.70;93.70;;;;;;5101604;27;20056;-78
2021/12/07 00:12:43;;;;;;;0.50;0.47;;;1.60;93.70;;;;;;5101565;27;20068;-78
2021/12/07 00:15:12;;;;;;;0.52;0.47;;;1.60;93.70;;;;;;5102035;27;20062;-77
2021/12/07 00:17:39;;;;;;;0.47;0.32;;;1.70;93.70;;;;;;5102118;27;20091;-77
2021/12/07 00:20:09;;;;;;;0.32;0.30;;;1.60;93.70;;;;;;5118365;27;20031;-77
2021/12/07 00:22:36;;;;;;;0.32;0.32;;;1.70;93.70;;;;;;5102376;27;20035;-77
2021/12/07 00:25:03;;;;;;;0.68;0.30;;;1.60;93.60;;;;;;5101637;27;20047;-78
2021/12/07 00:27:29;;;;;;;0.38;0.20;;;1.60;93.60;;;;;;5101464;27;20054;-78
2021/12/07 00:29:55;;;;;;;0.73;0.45;;;1.70;93.70;;;;;;5118853;27;20047;-78
2021/12/07 00:32:41;;;;;;;0.80;0.50;;;1.60;93.70;;;;;;5101225;27;20077;-78
2021/12/07 00:35:34;;;;;;;0.75;0.38;;;1.60;93.70;;;;;;5123800;27;20066;-78
2021/12/07 00:37:57;;;;;;;0.60;0.40;;;1.60;93.70;;;;;;5123983;27;20034;-77
2021/12/07 00:40:24;;;;;;;0.50;0.38;;;1.70;93.70;;;;;;5100947;27;20077;-77
2021/12/07 00:42:51;;;;;;;0.50;0.50;;;1.50;93.60;;;;;;5101039;27;20063;-78
2021/12/07 00:45:20;;;;;;;0.80;0.40;;;1.50;93.70;;;;;;5100919;27;20066;-77
2021/12/07 00:47:48;;;;;;;0.63;0.50;;;1.50;93.70;;;;;;5101503;27;20049;-77
2021/12/07 00:50:16;;;;;;;0.32;0.25;;;1.50;93.70;;;;;;5101058;27;20133;-77
2021/12/07 00:52:43;;;;;;;0.40;0.40;;;1.50;93.70;;;;;;5101380;27;20042;-78
2021/12/07 00:55:14;;;;;;;0.30;0.30;;;1.60;93.70;;;;;;5101113;27;20047;-78
2021/12/07 00:57:40;;;;;;;0.25;0.25;;;1.50;93.70;;;;;;5101959;27;20043;-78
2021/12/07 01:00:10;;;;;;;0.40;0.28;;;1.60;93.70;;;;;;5100924;27;20053;-77
2021/12/07 01:02:36;;;;;;;0.30;0.30;;;1.50;93.70;;;;;;5101572;27;20058;-78
2021/12/07 01:05:11;;;;;;;1.23;0.60;;;1.60;93.70;;;;;;5100803;27;20054;-78
2021/12/07 01:26:20;;;;;;;0.45;0.35;;;1.50;93.60;;;;;;5125216;27;20064;-78
2021/12/07 01:28:46;;;;;;;0.95;0.50;;;1.50;93.60;;;;;;5104866;27;20114;-79
2021/12/07 01:31:21;;;;;;;0.93;0.60;;;1.60;93.60;;;;;;5103904;27;20489;-79
2021/12/07 01:34:06;;;;;;;0.40;0.40;;;1.50;93.60;;;;;;5106376;27;20042;-78
2021/12/07 01:44:43;;;;;;;1.00;0.55;;;1.60;93.50;;;;;;5124074;27;20039;-80
2021/12/07 01:47:40;;;;;;;1.50;0.77;;;1.40;93.50;;;;;;5156350;27;20043;-79
2021/12/07 01:50:16;;;;;;;1.38;0.85;;;1.60;93.50;;;;;;5140576;27;20081;-80
2021/12/07 01:52:54;;;;;;;0.98;0.70;;;1.50;93.50;;;;;;5123416;27;20063;-79
2021/12/07 02:00:40;;;;;;;1.40;0.80;;;1.50;93.50;;;;;;5138977;27;20122;-79
2021/12/07 02:03:06;;;;;;;0.90;0.73;;;1.60;93.50;;;;;;5137847;27;20405;-80
2021/12/07 02:05:32;;;;;;;0.90;0.60;;;1.50;93.50;;;;;;5120969;27;20042;-80
2021/12/07 02:07:59;;;;;;;1.30;0.70;;;1.60;93.50;;;;;;5137503;27;20047;-79
2021/12/07 02:10:27;;;;;;;0.93;0.70;;;1.50;93.50;;;;;;5120386;27;20043;-79
2021/12/07 02:13:01;;;;;;;1.20;0.80;;;1.50;93.50;;;;;;5121041;27;20103;-80
2021/12/07 02:15:28;;;;;;;0.93;0.60;;;1.50;93.50;;;;;;5105417;27;20611;-80
2021/12/07 02:17:54;;;;;;;1.23;0.73;;;1.60;93.50;;;;;;5155736;27;20123;-80
2021/12/07 02:20:24;;;;;;;0.93;0.55;;;1.60;93.50;;;;;;5119441;27;20179;-80
2021/12/07 02:22:51;;;;;;;1.08;0.68;;;1.50;93.50;;;;;;5137757;27;20530;-80
2021/12/07 02:25:18;;;;;;;0.70;0.63;;;1.50;93.50;;;;;;5120265;27;20517;-80
2021/12/07 02:27:45;;;;;;;0.80;0.60;;;1.60;93.50;;;;;;5137461;27;20583;-80
2021/12/07 02:30:15;;;;;;;0.90;0.80;;;1.60;93.60;;;;;;5156224;27;20047;-80
2021/12/07 02:32:41;;;;;;;1.13;0.75;;;1.60;93.60;;;;;;5138147;27;20055;-80
2021/12/07 02:35:11;;;;;;;1.20;0.82;;;1.50;93.60;;;;;;5155606;27;20043;-80
2021/12/07 02:37:36;;;;;;;1.38;0.82;;;1.60;93.60;;;;;;5137484;27;20117;-80
2021/12/07 02:40:04;;;;;;;1.08;0.52;;;1.50;93.60;;;;;;5119927;27;20061;-80
2021/12/07 02:42:30;;;;;;;0.93;0.60;;;1.50;93.60;;;;;;5136974;27;20095;-80
2021/12/07 02:44:56;;;;;;;1.05;0.52;;;1.60;93.60;;;;;;5119566;27;20038;-80
2021/12/07 02:47:22;;;;;;;0.82;0.50;;;1.60;93.60;;;;;;5103049;27;20038;-80
2021/12/07 02:49:48;;;;;;;1.15;0.57;;;1.50;93.60;;;;;;5103227;27;20045;-79
2021/12/07 02:52:16;;;;;;;0.93;0.60;;;1.60;93.60;;;;;;5119735;27;20042;-79
2021/12/07 02:54:45;;;;;;;0.85;0.70;;;1.60;93.70;;;;;;5102776;27;20049;-80
2021/12/07 02:57:13;;;;;;;0.68;0.50;;;1.50;93.70;;;;;;5103122;27;20079;-80
2021/12/07 02:59:48;;;;;;;1.38;0.60;;;1.60;93.70;;;;;;5103217;27;20493;-80
2021/12/07 03:02:15;;;;;;;1.80;0.80;;;1.50;93.70;;;;;;5103560;27;20035;-79
2021/12/07 03:04:52;;;;;;;1.10;0.55;;;1.50;93.70;;;;;;5120269;27;20058;-80
2021/12/07 03:07:37;;;;;;;1.23;0.55;;;1.50;93.70;;;;;;5120962;27;20046;-80
2021/12/07 03:25:52;;;;;;;0.90;0.52;;;1.60;93.70;;;;;;5108098;27;20066;-80
2021/12/07 03:26:22;;;;;;;1.63;0.82;;;1.60;93.70;;;;;;5123573;27;20054;-80
2021/12/07 03:28:51;;;;;;;0.63;0.52;;;1.50;93.60;;;;;;5102173;27;20035;-80
2021/12/07 03:31:17;;;;;;;1.13;0.80;;;1.60;93.60;;;;;;5102175;27;20196;-80
2021/12/07 03:33:44;;;;;;;0.52;0.43;;;1.60;93.60;;;;;;5101866;27;20083;-80
2021/12/07 03:36:12;;;;;;;1.13;0.63;;;1.60;93.70;;;;;;5102027;27;20134;-81
2021/12/07 03:38:39;;;;;;;1.40;0.80;;;1.60;93.70;;;;;;5102288;27;20397;-81
2021/12/07 03:41:06;;;;;;;0.73;0.45;;;1.60;93.70;;;;;;5102246;27;20125;-81
2021/12/07 03:43:32;;;;;;;0.38;0.30;;;1.60;93.70;;;;;;5102112;27;20039;-80
2021/12/07 03:45:59;;;;;;;0.63;0.40;;;1.60;93.70;;;;;;5102038;27;20049;-80
2021/12/07 03:48:26;;;;;;;0.65;0.45;;;1.60;93.70;;;;;;5102623;27;20039;-81
2021/12/07 03:50:52;;;;;;;1.00;0.57;;;1.60;93.70;;;;;;5101798;27;20088;-80
2021/12/07 03:53:18;;;;;;;0.60;0.43;;;1.50;93.70;;;;;;5101934;27;20045;-80
2021/12/07 03:55:44;;;;;;;0.68;0.50;;;1.60;93.70;;;;;;5102007;27;20079;-81
2021/12/07 03:58:10;;;;;;;0.52;0.30;;;1.60;93.70;;;;;;5101669;27;20577;-82
2021/12/07 04:00:40;;;;;;;2.42;0.60;;;1.60;93.80;;;;;;5101563;27;20049;-81
2021/12/07 04:03:10;;;;;;;1.00;0.55;;;1.60;93.80;;;;;;5101794;27;20038;-81
2021/12/07 04:05:48;;;;;;;1.90;0.82;;;1.60;93.70;;;;;;5102058;27;20450;-81
2021/12/07 04:08:18;;;;;;;2.00;0.93;;;1.60;93.70;;;;;;5104334;27;20382;-81
2021/12/07 04:10:44;;;;;;;2.13;1.00;;;1.60;93.70;;;;;;5102273;27;20457;-81
2021/12/07 04:13:11;;;;;;;2.92;1.20;;;1.80;93.70;;;;;;5101415;27;20489;-81
2021/12/07 04:15:37;;;;;;;2.85;1.08;;;1.80;93.60;;;;;;5101244;27;20111;-82
2021/12/07 04:18:04;;;;;;;1.30;0.80;;;1.90;93.60;;;;;;5101003;27;20062;-81
2021/12/07 04:20:31;;;;;;;1.27;0.63;;;1.90;93.50;;;;;;5102120;27;20039;-81
2021/12/07 04:22:57;;;;;;;1.42;0.85;;;2.00;93.50;;;;;;5101328;27;20114;-83
2021/12/07 04:25:24;;;;;;;1.38;0.70;;;2.10;93.50;;;;;;5103957;27;20055;-83
2021/12/07 04:27:52;;;;;;;1.77;0.70;;;2.10;93.40;;;;;;5102287;27;20072;-83
2021/12/07 04:30:23;;;;;;;0.52;0.40;;;2.10;93.40;;;;;;5101351;27;20489;-83
2021/12/07 04:32:50;;;;;;;;;;;2.20;93.30;;;;;;5101824;27;20042;-83
2021/12/07 04:35:17;;;;;;;1.35;0.38;;;2.20;93.30;;;;;;5119362;27;19945;-83
2021/12/07 04:37:43;;;;;;;1.48;0.70;;;2.20;93.20;;;;;;5101306;27;20122;-83
2021/12/07 04:40:12;;;;;;;1.13;0.77;;;2.20;93.30;;;;;;5117999;27;20042;-83
2021/12/07 04:42:39;;;;;;;1.02;0.60;;;2.30;93.30;;;;;;5100774;27;20049;-83
2021/12/07 04:45:09;;;;;;;1.25;0.80;;;2.30;93.30;;;;;;5118946;27;20047;-83
2021/12/07 04:47:50;;;;;;;0.50;0.50;;;2.20;93.30;;;;;;5102199;27;20076;-83
2021/12/07 04:50:34;;;;;;;0.73;0.47;;;2.20;93.30;;;;;;5105682;27;20048;-84
2021/12/07 04:57:38;;;;;;;1.52;0.60;;;2.20;93.30;;;;;;5137263;27;20043;-84
2021/12/07 04:58:26;;;;;;;0.40;0.40;;;2.20;93.30;;;;;;5123580;27;20095;-85
2021/12/07 05:00:52;;;;;;;1.65;0.52;;;2.30;93.40;;;;;;5101013;27;20031;-84
2021/12/07 05:03:18;;;;;;;0.88;0.30;;;2.20;93.40;;;;;;5102939;27;20035;-84
2021/12/07 05:05:49;;;;;;;0.93;0.40;;;2.20;93.40;;;;;;5118531;27;20520;-84
2021/12/07 05:08:21;;;;;;;0.88;0.30;;;2.20;93.50;;;;;;5137114;27;20533;-84
2021/12/07 05:11:22;;;;;;;0.70;0.47;;;2.20;93.50;;;;;;5117191;27;20050;-84
2021/12/07 05:13:52;;;;;;;0.57;0.40;;;2.20;93.50;;;;;;5154139;27;20043;-83
2021/12/07 05:16:31;;;;;;;0.30;0.30;;;2.20;93.50;;;;;;5107358;27;20038;-83
2021/12/07 05:19:05;;;;;;;0.80;0.45;;;2.10;93.50;;;;;;5138758;27;20130;-83
2021/12/07 05:24:20;;;;;;;1.98;0.73;;;2.10;93.50;;;;;;5154375;27;20046;-83
2021/12/07 05:37:41;;;;;;;1.67;1.00;;;2.20;93.50;;;;;;5146780;27;20078;-82
2021/12/07 05:40:23;;;;;;;1.63;0.90;;;2.10;93.50;;;;;;5123394;27;20039;-82
2021/12/07 05:42:50;;;;;;;1.23;0.80;;;2.10;93.40;;;;;;5135443;27;20130;-82
2021/12/07 05:45:19;;;;;;;1.63;0.80;;;2.20;93.50;;;;;;5101841;27;20078;-82
2021/12/07 05:47:45;;;;;;;1.88;0.80;;;2.20;93.50;;;;;;5153681;27;20062;-82
2021/12/07 05:50:14;;;;;;;1.15;0.45;;;2.20;93.50;;;;;;5135241;27;20038;-82
2021/12/07 05:52:41;;;;;;;0.47;0.40;;;2.30;93.50;;;;;;5118820;27;20038;-82
2021/12/07 05:55:08;;;;;;;3.42;0.82;;;2.30;93.50;;;;;;5155945;27;20390;-81
2021/12/07 05:57:35;;;;;;;1.98;0.57;;;2.20;93.50;;;;;;5121264;27;20434;-81
2021/12/07 06:00:01;;;;;;;1.15;0.60;;;2.30;93.40;;;;;;5138058;27;20035;-81
2021/12/07 06:02:27;;;;;;;1.52;0.70;;;2.40;93.40;;;;;;5138397;27;20038;-81
2021/12/07 06:04:53;;;;;;;1.90;0.70;;;2.40;93.40;;;;;;5156703;27;20047;-81
2021/12/07 06:07:19;;;;;;;1.20;0.52;;;2.30;93.40;;;;;;5138494;27;20038;-81
2021/12/07 06:09:44;;;;;;;0.70;0.60;;;2.30;93.40;;;;;;5120652;27;20054;-81
2021/12/07 06:12:10;;;;;;;0.95;0.43;;;2.30;93.40;;;;;;5156871;27;20058;-81
2021/12/07 06:14:42;;;;;;;0.50;0.47;;;2.30;93.40;;;;;;5137532;27;20065;-81
2021/12/07 06:17:08;;;;;;;1.13;0.50;;;2.20;93.50;;;;;;5121251;27;20039;-81
2021/12/07 06:19:34;;;;;;;0.95;0.52;;;2.20;93.50;;;;;;5137977;27;20062;-80
2021/12/07 06:22:00;;;;;;;0.75;0.50;;;2.20;93.60;;;;;;5137310;27;20039;-81
2021/12/07 06:24:26;;;;;;;0.60;0.40;;;2.20;93.60;;;;;;5155992;27;20027;-81
2021/12/07 06:26:51;;;;;;;1.58;0.43;;;2.20;93.60;;;;;;5137588;27;20038;-80
2021/12/07 06:29:17;;;;;;;0.85;0.32;;;2.20;93.60;;;;;;5137516;27;20039;-79
2021/12/07 06:31:43;;;;;;;0.88;0.50;;;2.10;93.60;;;;;;5137451;27;20080;-80
2021/12/07 06:34:10;;;;;;;0.57;0.40;;;2.20;93.60;;;;;;5155794;27;20504;-79
2021/12/07 06:36:37;;;;;;;0.60;0.60;;;2.10;93.60;;;;;;5120285;27;20137;-79
2021/12/07 06:39:05;;;;;;;0.35;0.35;;;2.20;93.70;;;;;;5155790;27;20043;-79
2021/12/07 06:41:31;;;;;;;0.43;0.30;;;2.20;93.70;;;;;;5155948;27;20079;-80
2021/12/07 06:43:57;;;;;;;0.90;0.40;;;2.20;93.60;;;;;;5137335;27;20034;-79
2021/12/07 06:46:22;;;;;;;0.80;0.47;;;2.20;93.60;;;;;;5102893;27;20034;-79
2021/12/07 06:48:48;;;;;;;0.38;0.28;;;2.20;93.60;;;;;;5103394;27;20470;-79
2021/12/07 06:51:14;;;;;;;0.50;0.30;;;2.30;93.60;;;;;;5137031;27;20149;-79
2021/12/07 06:53:40;;;;;;;0.47;0.20;;;2.30;93.60;;;;;;5120312;27;20039;-79
2021/12/07 06:56:08;;;;;;;1.15;0.50;;;2.30;93.60;;;;;;5155307;27;20041;-79
2021/12/07 06:58:35;;;;;;;0.60;0.20;;;2.20;93.80;;;;;;5136819;27;20466;-79
2021/12/07 07:01:03;;;;;;;0.75;0.30;;;2.30;93.60;;;;;;5155716;27;20039;-79
2021/12/07 07:03:28;;;;;;;0.22;0.22;;;2.30;93.90;;;;;;5137407;27;20038;-79
2021/12/07 07:05:54;;;;;;;1.02;0.30;;;2.20;93.60;;;;;;5119442;27;20042;-79
2021/12/07 07:08:20;;;;;;;0.75;0.35;;;2.10;93.60;;;;;;5155284;27;20034;-79
2021/12/07 07:10:46;;;;;;;1.80;0.60;;;2.10;93.70;;;;;;5137532;27;20107;-78
2021/12/07 07:13:12;;;;;;;0.98;0.38;;;2.10;93.70;;;;;;5103057;27;20401;-78
2021/12/07 07:15:39;;;;;;;1.08;0.30;;;2.00;93.70;;;;;;5119410;27;20097;-78
2021/12/07 07:18:04;;;;;;;0.40;0.40;;;2.00;93.80;;;;;;5102522;27;20043;-78
2021/12/07 07:20:30;;;;;;;0.45;0.28;;;2.00;93.80;;;;;;5137242;27;20045;-78
2021/12/07 07:22:56;;;;;;;0.47;0.38;;;2.10;93.80;;;;;;5155183;27;20121;-78
2021/12/07 07:25:22;;;;;;;0.30;0.25;;;2.10;93.80;;;;;;5155061;27;20130;-78
2021/12/07 07:27:48;;;;;;;0.85;0.30;;;2.10;93.80;;;;;;5136417;27;20043;-78
2021/12/07 07:30:17;;;;;;;1.38;0.65;;;2.00;93.70;;;;;;5154955;27;20061;-78
2021/12/07 07:32:43;;;;;;;0.95;0.50;;;2.00;93.80;;;;;;5136503;27;20042;-78
2021/12/07 07:35:10;;;;;;;0.35;0.35;;;2.00;94.10;;;;;;5136221;27;20049;-78
2021/12/07 07:37:37;;;;;;;0.50;0.40;;;2.00;93.90;;;;;;5136117;27;20121;-78
2021/12/07 07:40:06;;;;;;;0.50;0.30;;;2.00;93.90;;;;;;5119259;27;20052;-78
2021/12/07 07:42:33;;;;;;;0.93;0.40;;;2.10;93.80;;;;;;5118987;27;20043;-78
2021/12/07 07:44:58;;;;;;;1.83;0.60;;;2.10;93.80;;;;;;5136089;27;20046;-79
2021/12/07 07:47:42;;;;;;;0.65;0.30;;;2.10;93.90;;;;;;5118869;27;20621;-81
2021/12/07 07:50:10;;;;;;;0.95;0.30;;;2.10;93.80;;;;;;5089476;28;20064;-81
2021/12/07 07:52:36;;;;;;;1.88;0.63;;;2.10;93.70;;;;;;5074843;28;20138;-80
2021/12/07 07:55:03;;;;;;;1.52;0.55;;;2.10;93.70;;;;;;5074348;28;20151;-82
2021/12/07 07:57:29;;;;;;;1.02;0.65;;;2.20;93.70;;;;;;5040552;28;20495;-80
2021/12/07 07:59:54;;;;;;;0.35;0.30;;;2.20;93.70;;;;;;5040446;28;20044;-78
2021/12/07 08:02:21;;;;;;;1.13;0.47;;;2.20;93.60;;;;;;5040563;28;20483;-78
2021/12/07 08:04:47;;;;;;;2.75;0.60;;;2.30;93.70;;;;;;5074166;28;20060;-79
2021/12/07 08:07:13;;;;;;;1.13;0.60;;;2.30;93.70;;;;;;5040675;28;20082;-79
2021/12/07 08:09:39;;;;;;;1.33;0.50;;;2.30;93.60;;;;;;5073748;28;20579;-79
2021/12/07 08:12:06;;;;;;;2.05;0.60;;;2.30;93.60;;;;;;5057136;28;20059;-79
2021/12/07 08:14:32;;;;;;;1.10;0.52;;;2.40;93.60;;;;;;5084426;27;20041;-80
2021/12/07 08:16:58;;;;;;;0.52;0.45;;;2.40;93.80;;;;;;5117752;27;20117;-80
2021/12/07 08:19:24;;;;;;;1.13;0.60;;;2.40;93.60;;;;;;5136560;27;20580;-79
2021/12/07 08:21:50;;;;;;;0.77;0.43;;;2.50;93.60;;;;;;5101512;27;20125;-79
2021/12/07 08:24:16;;;;;;;1.95;0.70;;;2.50;93.60;;;;;;5101301;27;20072;-79
2021/12/07 08:26:42;;;;;;;1.50;0.60;;;2.50;93.50;;;;;;5135506;27;20054;-81
2021/12/07 08:29:08;;;;;;;1.95;0.75;;;2.50;93.50;;;;;;5101272;27;20048;-82
2021/12/07 08:31:36;;;;;;;1.17;0.68;;;2.50;93.50;;;;;;5136121;27;20055;-81
2021/12/07 08:34:05;;;;;;;2.00;0.80;;;2.70;93.50;;;;;;5073363;28;20399;-82
2021/12/07 08:36:30;;;;;;;1.40;0.60;;;2.50;93.50;;;;;;5056470;28;20554;-80
2021/12/07 08:39:03;;;;;;;1.55;0.88;;;2.60;93.50;;;;;;5072820;28;20178;-79
2021/12/07 08:42:05;;;;;;;1.38;0.70;;;2.60;93.50;;;;;;5048437;28;20044;-79
2021/12/07 08:44:31;;;;;;;2.67;0.90;;;2.60;93.50;;;;;;5033089;28;20041;-80
2021/12/07 08:47:00;;;;;;;1.10;0.60;;;2.90;93.50;;;;;;5028326;28;20056;-80
2021/12/07 08:49:27;;;;;;;1.95;0.90;;;2.70;93.50;;;;;;5016651;28;20111;-79
2021/12/07 08:52:32;;;;;;;1.27;0.90;;;2.70;93.50;;;;;;5008112;28;20045;-79
2021/12/07 09:00:54;;;;;;;1.50;0.80;;;2.70;93.50;;;;;;5015118;28;20072;-79
2021/12/07 09:03:21;;;;;;;1.48;0.82;;;2.80;93.40;;;;;;5012932;28;20162;-79
2021/12/07 09:07:00;;;;;;;2.15;1.08;;;2.80;93.40;;;;;;4988568;28;20041;-79
2021/12/07 09:09:28;;;;;;;2.28;0.70;;;2.80;93.50;;;;;;5009747;28;20076;-78
2021/12/07 09:11:55;;;;;;;3.88;1.10;;;2.70;93.40;;;;;;5014598;28;20484;-78
2021/12/07 09:14:22;;;;;;;1.80;1.10;;;2.90;93.40;;;;;;5029301;28;20045;-78
2021/12/07 09:16:48;;;;;;;1.65;1.00;;;2.90;93.40;;;;;;5029173;28;20038;-80
2021/12/07 09:19:16;;;;;;;3.58;0.90;;;2.90;93.30;;;;;;5045646;28;20047;-82
2021/12/07 09:21:43;;;;;;;1.92;1.08;;;2.90;93.40;;;;;;5072340;28;20130;-79
2021/12/07 09:24:09;;;;;;;1.98;1.00;;;2.90;93.40;;;;;;5089510;28;20044;-78
2021/12/07 09:26:40;;;;;;;2.08;0.98;;;2.90;93.40;;;;;;5080202;28;20035;-78
2021/12/07 09:29:06;;;;;;;0.90;0.70;;;2.90;93.40;;;;;;5093556;28;20048;-78
2021/12/07 09:31:32;;;;;;;2.92;1.45;;;2.90;93.40;;;;;;5092632;28;20564;-77
2021/12/07 09:33:58;;;;;;;1.98;1.20;;;3.00;93.50;;;;;;5094452;28;20122;-76
2021/12/07 09:36:25;;;;;;;3.17;1.20;;;3.00;93.50;;;;;;5092547;27;20043;-79
2021/12/07 09:38:51;;;;;;;2.92;1.20;;;3.00;93.40;;;;;;5121398;27;20038;-77
2021/12/07 09:41:18;;;;;;;3.20;1.40;;;3.00;93.40;;;;;;5157010;27;20922;-77
2021/12/07 09:43:45;;;;;;;2.92;1.40;;;3.10;93.40;;;;;;5159768;27;20042;-78
2021/12/07 09:46:13;;;;;;;2.53;1.30;;;3.10;93.30;;;;;;5108910;27;20409;-79
2021/12/07 09:48:40;;;;;;;3.00;1.30;;;3.20;93.40;;;;;;5137982;27;20043;-78
2021/12/07 09:51:08;;;;;;;3.38;1.30;;;3.20;93.30;;;;;;5137692;27;20066;-77
2021/12/07 09:53:35;;;;;;;2.50;1.30;;;3.30;93.40;;;;;;5120847;27;20042;-79
2021/12/07 09:56:03;;;;;;;3.35;1.45;;;3.20;93.30;;;;;;5137685;27;20049;-79
2021/12/07 09:58:29;;;;;;;5.13;1.40;;;3.20;93.30;;;;;;5120934;27;20465;-79
2021/12/07 10:00:56;;;;;;;3.72;1.23;;;3.30;93.30;;;;;;5120639;27;20058;-79
2021/12/07 10:03:23;;;;;;;1.83;1.30;;;3.30;93.30;;;;;;5138223;27;20114;-77
2021/12/07 10:05:49;;;;;;;2.53;1.20;;;3.30;93.30;;;;;;5120850;27;20039;-78
2021/12/07 10:08:15;;;;;;;4.05;1.58;;;3.30;93.20;;;;;;5137748;27;20058;-78
2021/12/07 10:10:47;;;;;;;2.90;1.30;;;3.40;93.30;;;;;;5120283;27;20124;-77
2021/12/07 10:13:21;;;;;;;4.05;1.45;;;3.40;93.20;;;;;;5137469;27;20030;-79
2021/12/07 10:15:47;;;;;;;2.63;1.40;;;3.40;93.20;;;;;;5104603;27;20327;-78
2021/12/07 10:18:16;;;;;;;3.85;1.35;;;3.40;93.20;;;;;;5103499;27;20084;-79
2021/12/07 10:20:45;;;;;;;3.35;1.70;;;3.40;93.20;;;;;;5103995;27;20414;-78
2021/12/07 10:23:30;;;;;;;2.63;1.30;;;3.40;93.20;;;;;;5123035;27;20031;-84
2021/12/07 10:26:10;;;;;;;1.92;1.20;;;3.50;93.20;;;;;;5116558;28;20134;-78
2021/12/07 10:31:46;;;;;;;4.38;1.60;;;3.60;93.20;;;;;;5058180;28;20080;-78
2021/12/07 10:34:51;;;;;;;3.28;1.67;;;3.70;93.20;;;;;;5054543;28;20040;-78
2021/12/07 10:37:41;;;;;;;3.85;1.48;;;3.80;93.10;;;;;;5014364;28;20080;-77
2021/12/07 10:40:29;;;;;;;2.53;1.02;;;3.80;93.10;;;;;;5008629;28;20042;-78
2021/12/07 10:42:55;;;;;;;3.08;1.30;;;3.80;93.10;;;;;;4999083;28;20042;-78
2021/12/07 10:45:26;;;;;;;2.92;1.35;;;3.80;93.10;;;;;;5031895;28;20052;-77
2021/12/07 10:47:52;;;;;;;2.45;1.10;;;3.90;93.10;;;;;;5015007;28;20064;-77
2021/12/07 10:50:19;;;;;;;2.65;1.08;;;3.90;93.00;;;;;;5014947;28;20516;-79
2021/12/07 10:52:45;;;;;;;1.92;1.02;;;3.90;93.00;;;;;;5031239;28;20037;-79
2021/12/07 10:55:16;;;;;;;1.73;0.90;;;4.00;93.00;;;;;;5014781;28;20626;-78
2021/12/07 10:57:47;;;;;;;4.05;1.30;;;4.00;93.00;;;;;;5047464;28;20036;-78
2021/12/07 11:00:23;;;;;;;4.03;1.13;;;4.10;93.00;;;;;;5052538;28;20098;-79
2021/12/07 11:02:55;;;;;;;2.47;1.08;;;4.10;93.00;;;;;;5075338;28;20044;-78
2021/12/07 11:05:26;;;;;;;3.97;1.08;;;4.30;93.00;;;;;;5095485;27;20042;-79
2021/12/07 11:07:57;;;;;;;2.90;0.85;;;4.20;92.90;;;;;;5137313;27;20038;-83
2021/12/07 11:10:30;;;;;;;3.58;1.10;;;4.40;92.90;;;;;;5119896;27;20489;-83
2021/12/07 12:00:43;;;;;;;5.78;1.98;;;4.60;88.50;;;;;;5172063;27;20366;-84
2021/12/07 12:03:13;;;;;;;5.10;1.58;;;5.30;92.50;;;;;;5114769;27;20393;-83
2021/12/07 12:05:42;;;;;;;2.92;1.30;;;5.30;92.50;;;;;;5150401;27;20039;-82
2021/12/07 12:08:10;;;;;;;3.33;1.33;;;5.50;92.50;;;;;;5098340;27;20389;-81
2021/12/07 12:10:57;;;;;;;3.15;1.20;;;5.50;92.50;;;;;;5132662;27;20096;-83
2021/12/07 12:13:49;;;;;;;1.95;1.02;;;5.50;92.50;;;;;;5088356;28;20191;-81
2021/12/07 12:16:33;;;;;;;1.83;1.10;;;5.60;92.50;;;;;;5091124;28;20064;-82
2021/12/07 12:19:29;;;;;;;1.73;0.85;;;5.60;92.50;;;;;;5093182;28;20485;-84
2021/12/07 12:22:05;;;;;;;1.40;0.80;;;5.70;92.50;;;;;;5063312;28;20036;-83
2021/12/07 12:24:40;;;;;;;2.00;0.80;;;5.70;92.50;;;;;;5056449;28;20079;-82
2021/12/07 12:27:10;;;;;;;1.27;0.77;;;5.80;92.50;;;;;;5075273;28;20162;-82
2021/12/07 12:29:39;;;;;;;3.00;0.73;;;5.70;92.50;;;;;;5038409;28;20071;-81
2021/12/07 12:32:06;;;;;;;3.15;0.90;;;5.80;92.40;;;;;;5076490;28;20525;-82
2021/12/07 12:34:46;;;;;;;3.28;1.05;;;5.80;92.40;;;;;;5094035;28;20051;-85
2021/12/07 12:37:21;;;;;;;2.45;1.00;;;5.80;92.40;;;;;;5060476;28;20135;-83
2021/12/07 12:39:55;;;;;;;2.08;0.80;;;5.90;92.40;;;;;;5038312;28;20044;-84
2021/12/07 12:42:39;;;;;;;1.25;0.88;;;5.90;92.30;;;;;;5035841;28;20044;-85
2021/12/07 12:45:19;;;;;;;2.95;1.50;;;5.90;92.30;;;;;;5111426;27;20031;-83
2021/12/07 12:47:52;;;;;;;2.25;1.00;;;6.00;92.30;;;;;;5117777;27;20043;-83
2021/12/07 12:50:21;;;;;;;2.22;1.00;;;5.90;92.30;;;;;;5102759;27;20046;-81
2021/12/07 12:52:54;;;;;;;0.98;0.73;;;6.00;92.30;;;;;;5153274;27;20070;-81
2021/12/07 12:55:41;;;;;;;1.02;0.73;;;5.90;92.30;;;;;;5115170;27;20068;-84
2021/12/07 12:58:12;;;;;;;1.50;0.63;;;6.10;92.30;;;;;;5098192;27;20031;-82
2021/12/07 13:01:10;;;;;;;1.65;0.73;;;6.00;92.30;;;;;;5107335;28;20127;-82
2021/12/07 13:03:59;;;;;;;1.30;0.60;;;6.00;92.30;;;;;;5103737;28;20058;-84
2021/12/07 13:07:04;;;;;;;1.05;0.70;;;6.00;92.20;;;;;;5085154;28;20138;-84
2021/12/07 13:09:54;;;;;;;2.35;0.95;;;6.00;92.30;;;;;;5103990;28;20106;-85
2021/12/07 13:13:42;;;;;;;0.90;0.68;;;5.90;92.20;;;;;;5100853;28;20043;-86
2021/12/07 13:16:47;;;;;;;1.27;0.70;;;5.90;92.20;;;;;;5026814;28;20037;-85
2021/12/07 13:20:03;;;;;;;1.52;0.50;;;6.00;92.30;;;;;;4965280;28;20117;-86
2021/12/07 13:22:47;;;;;;;0.82;0.55;;;5.90;92.30;;;;;;4996662;28;20070;-82
2021/12/07 13:25:19;;;;;;;1.52;0.70;;;6.00;92.30;;;;;;4989188;28;20467;-86
2021/12/07 13:28:10;;;;;;;2.05;0.60;;;5.90;92.20;;;;;;4965997;28;20038;-85
2021/12/07 13:30:53;;;;;;;1.70;0.60;;;5.80;92.30;;;;;;4997042;28;20053;-85
2021/12/07 13:33:48;;;;;;;2.05;0.75;;;5.90;92.30;;;;;;4964217;28;20053;-84
2021/12/07 13:36:34;;;;;;;1.67;0.60;;;5.70;92.30;;;;;;4979507;28;20038;-85
2021/12/07 13:39:25;;;;;;;0.88;0.38;;;5.80;92.40;;;;;;4994357;28;20588;-84
2021/12/07 13:42:06;;;;;;;1.48;0.60;;;5.60;92.40;;;;;;4967432;28;20050;-84
2021/12/07 13:44:39;;;;;;;1.23;0.47;;;5.70;92.50;;;;;;4979087;28;20047;-83
2021/12/07 13:47:11;;;;;;;1.15;0.50;;;5.60;92.50;;;;;;4984852;28;20042;-84
2021/12/07 13:49:49;;;;;;;0.90;0.55;;;5.40;92.50;;;;;;5049799;28;20130;-83
2021/12/07 13:52:20;;;;;;;0.82;0.35;;;5.40;92.50;;;;;;5066679;28;20127;-82
2021/12/07 13:54:48;;;;;;;1.17;0.70;;;5.50;92.60;;;;;;5076455;28;20036;-83
2021/12/07 13:57:18;;;;;;;0.75;0.45;;;5.40;92.60;;;;;;5055165;28;20036;-83
2021/12/07 13:59:54;;;;;;;0.63;0.40;;;5.30;92.60;;;;;;5060543;28;20047;-82
2021/12/07 14:02:23;;;;;;;2.33;0.68;;;5.30;92.60;;;;;;5072662;28;20109;-82
2021/12/07 14:04:48;;;;;;;0.85;0.45;;;5.30;92.70;;;;;;5099186;28;20087;-81
2021/12/07 14:07:17;;;;;;;0.95;0.40;;;5.20;92.60;;;;;;5068910;28;20143;-82
2021/12/07 14:09:42;;;;;;;2.30;0.47;;;5.20;92.70;;;;;;5095404;28;20602;-84
2021/12/07 14:12:08;;;;;;;0.98;0.40;;;5.20;92.70;;;;;;5073423;28;20040;-84
2021/12/07 14:14:34;;;;;;;0.60;0.40;;;5.10;92.70;;;;;;5074532;28;20067;-84
2021/12/07 14:17:00;;;;;;;1.45;0.57;;;5.10;92.70;;;;;;5091543;28;20036;-84
2021/12/07 14:19:27;;;;;;;0.63;0.30;;;5.10;92.70;;;;;;5092002;28;20060;-84
2021/12/07 14:21:53;;;;;;;0.75;0.40;;;5.10;92.70;;;;;;5057907;28;20047;-85
2021/12/07 14:24:59;;;;;;;1.05;0.60;;;5.30;92.80;;;;;;5094535;28;20123;-89
2021/12/07 14:27:26;;;;;;;2.05;0.50;;;5.00;92.70;;;;;;5031371;28;20128;-84
2021/12/07 14:29:53;;;;;;;0.43;0.30;;;4.90;92.70;;;;;;5015428;28;20112;-83
2021/12/07 14:32:19;;;;;;;1.80;0.57;;;5.00;92.80;;;;;;5017232;28;20080;-84
2021/12/07 14:34:45;;;;;;;0.47;0.25;;;4.90;92.80;;;;;;5015189;28;20038;-83
2021/12/07 14:37:11;;;;;;;0.40;0.30;;;4.80;92.80;;;;;;5030998;28;20045;-81
2021/12/07 14:39:42;;;;;;;0.50;0.30;;;4.80;92.80;;;;;;5014153;28;20052;-81
2021/12/07 14:42:12;;;;;;;0.67;0.40;;;4.70;92.80;;;;;;5015121;28;20045;-79
2021/12/07 14:45:51;;;;;;;1.05;0.57;;;4.70;92.90;;;;;;5013671;28;20551;-81
2021/12/07 15:04:29;;;;;;;0.43;0.40;;;4.50;92.90;;;;;;4837417;29;20049;-85
2021/12/07 15:06:59;;;;;;;1.13;0.30;;;4.40;92.90;;;;;;4801583;29;20035;-80
2021/12/07 15:10:14;;;;;;;1.85;0.38;;;4.30;92.90;;;;;;4734672;30;20052;-81
2021/12/07 15:12:50;;;;;;;0.90;0.40;;;4.30;93.00;;;;;;4736962;30;20048;-83
2021/12/07 15:15:17;;;;;;;0.35;0.20;;;4.30;93.00;;;;;;4734361;30;20505;-81
2021/12/07 15:17:43;;;;;;;0.22;0.22;;;4.20;93.00;;;;;;4740160;30;20204;-78
2021/12/07 15:20:12;;;;;;;0.98;0.30;;;4.20;93.10;;;;;;4739369;30;20048;-80
2021/12/07 15:22:38;;;;;;;0.73;0.20;;;4.20;93.10;;;;;;4732815;30;20064;-79
2021/12/07 15:25:32;;;;;;;1.05;0.40;;;4.20;93.10;;;;;;4736925;30;20085;-85
2021/12/07 15:27:59;;;;;;;1.98;0.38;;;4.10;93.10;;;;;;4718429;30;20040;-81
2021/12/07 15:30:32;;;;;;;0.88;0.50;;;4.10;93.20;;;;;;4784197;29;20047;-82
2021/12/07 15:33:32;;;;;;;1.33;0.60;;;4.10;93.20;;;;;;4802961;29;20047;-84
2021/12/07 15:35:58;;;;;;;1.02;0.30;;;4.00;93.10;;;;;;4854551;29;20045;-82